createdAt,value
2016-12-25T00:00:34.539Z,0
2016-12-25T00:01:34.568Z,0
2016-12-25T00:02:34.575Z,0
2016-12-25T00:03:49.511Z,0
2016-12-25T00:05:49.546Z,0
2016-12-25T00:06:34.649Z,0
2016-12-25T00:07:34.666Z,0
2016-12-25T00:08:34.681Z,0
2016-12-25T00:10:34.723Z,0
2016-12-25T00:11:34.743Z,0
2016-12-25T00:12:49.679Z,0
2016-12-25T00:13:34.782Z,0
2016-12-25T00:14:34.796Z,0
2016-12-25T00:15:34.816Z,0
2016-12-25T00:16:34.833Z,0
2016-12-25T00:17:49.772Z,0
2016-12-25T00:18:34.877Z,0
2016-12-25T00:19:34.895Z,0
2016-12-25T00:20:34.906Z,0
2016-12-25T00:21:34.934Z,0
2016-12-25T00:22:34.959Z,0
2016-12-25T00:23:49.882Z,0
2016-12-25T00:24:34.988Z,0
2016-12-25T00:25:35.009Z,0
2016-12-25T00:26:35.016Z,0
2016-12-25T00:27:35.038Z,0
2016-12-25T00:28:49.981Z,0
2016-12-25T00:29:35.074Z,0
2016-12-25T00:30:35.094Z,0
2016-12-25T00:31:35.114Z,0
2016-12-25T00:32:35.128Z,0
2016-12-25T00:33:35.152Z,0
2016-12-25T00:34:35.196Z,0
2016-12-25T00:35:35.190Z,0
2016-12-25T00:36:35.207Z,0
2016-12-25T00:37:35.231Z,0
2016-12-25T00:38:35.242Z,0
2016-12-25T00:39:35.263Z,0
2016-12-25T00:40:50.202Z,0
2016-12-25T00:41:35.305Z,0
2016-12-25T00:43:35.341Z,0
2016-12-25T00:44:50.274Z,0
2016-12-25T00:45:35.381Z,0
2016-12-25T00:46:35.392Z,0
2016-12-25T00:47:50.335Z,0
2016-12-25T00:48:50.354Z,0
2016-12-25T00:49:50.371Z,0
2016-12-25T00:50:50.389Z,0
2016-12-25T00:51:35.488Z,0
2016-12-25T00:52:35.513Z,0
2016-12-25T00:53:35.530Z,0
2016-12-25T00:54:35.543Z,0
2016-12-25T00:55:35.561Z,0
2016-12-25T00:56:35.586Z,0
2016-12-25T00:57:35.603Z,0
2016-12-25T00:58:35.619Z,0
2016-12-25T00:59:35.649Z,0
2016-12-25T01:00:50.578Z,0
2016-12-25T01:01:35.678Z,0
2016-12-25T01:02:35.696Z,0
2016-12-25T01:03:35.713Z,0
2016-12-25T01:04:36.067Z,0
2016-12-25T01:05:35.752Z,0
2016-12-25T01:06:35.803Z,0
2016-12-25T01:07:35.789Z,0
2016-12-25T01:08:35.811Z,0
2016-12-25T01:09:35.827Z,0
2016-12-25T01:10:50.766Z,0
2016-12-25T01:11:35.868Z,0
2016-12-25T01:12:35.891Z,0
2016-12-25T01:13:35.910Z,0
2016-12-25T01:14:35.921Z,0
2016-12-25T01:15:35.940Z,0
2016-12-25T01:16:50.881Z,0
2016-12-25T01:17:35.978Z,0
2016-12-25T01:18:35.995Z,0
2016-12-25T01:19:36.013Z,0
2016-12-25T01:20:36.051Z,0
2016-12-25T01:21:36.053Z,0
2016-12-25T01:22:36.075Z,0
2016-12-25T01:23:36.120Z,0
2016-12-25T01:24:51.030Z,0
2016-12-25T01:25:36.159Z,0
2016-12-25T01:26:51.066Z,0
2016-12-25T01:27:36.162Z,0
2016-12-25T01:28:51.102Z,0
2016-12-25T01:29:36.202Z,0
2016-12-25T01:30:36.227Z,0
2016-12-25T01:31:36.236Z,0
2016-12-25T01:32:51.179Z,0
2016-12-25T01:33:36.276Z,0
2016-12-25T01:34:36.294Z,0
2016-12-25T01:35:36.312Z,0
2016-12-25T01:36:36.331Z,0
2016-12-25T01:37:36.351Z,0
2016-12-25T01:38:36.368Z,0
2016-12-25T01:39:36.693Z,0
2016-12-25T01:40:36.409Z,0
2016-12-25T01:41:36.728Z,0
2016-12-25T01:42:36.472Z,0
2016-12-25T01:45:36.495Z,0
2016-12-25T01:46:36.515Z,0
2016-12-25T01:47:51.448Z,0
2016-12-25T01:48:36.553Z,0
2016-12-25T01:49:36.563Z,0
2016-12-25T01:50:36.585Z,0
2016-12-25T01:51:36.602Z,0
2016-12-25T01:52:36.619Z,0
2016-12-25T01:53:36.943Z,0
2016-12-25T01:54:51.572Z,0
2016-12-25T01:55:36.676Z,0
2016-12-25T01:56:36.691Z,0
2016-12-25T01:58:36.727Z,0
2016-12-25T01:59:51.661Z,0
2016-12-25T02:00:36.765Z,0
2016-12-25T02:01:36.777Z,0
2016-12-25T02:02:36.796Z,0
2016-12-25T02:03:36.811Z,0
2016-12-25T02:04:36.828Z,0
2016-12-25T02:05:36.857Z,0
2016-12-25T02:06:36.866Z,0
2016-12-25T02:07:36.881Z,0
2016-12-25T02:08:36.901Z,0
2016-12-25T02:09:36.922Z,0
2016-12-25T02:10:36.934Z,0
2016-12-25T02:11:36.957Z,0
2016-12-25T02:12:36.970Z,0
2016-12-25T02:13:36.988Z,0
2016-12-25T02:14:51.923Z,0
2016-12-25T02:15:37.025Z,0
2016-12-25T02:16:37.042Z,0
2016-12-25T02:17:37.363Z,0
2016-12-25T02:18:37.078Z,0
2016-12-25T02:19:52.014Z,0
2016-12-25T02:20:37.109Z,0
2016-12-25T02:21:37.129Z,0
2016-12-25T02:22:37.147Z,0
2016-12-25T02:23:37.164Z,0
2016-12-25T02:24:37.179Z,0
2016-12-25T02:25:37.203Z,0
2016-12-25T02:26:52.134Z,0
2016-12-25T02:27:37.236Z,0
2016-12-25T02:28:37.255Z,0
2016-12-25T02:29:37.269Z,0
2016-12-25T02:30:37.288Z,0
2016-12-25T02:31:52.222Z,0
2016-12-25T02:32:37.324Z,0
2016-12-25T02:33:37.342Z,0
2016-12-25T02:34:37.360Z,0
2016-12-25T02:35:52.291Z,0
2016-12-25T02:36:37.396Z,0
2016-12-25T02:37:37.408Z,0
2016-12-25T02:38:37.426Z,0
2016-12-25T02:39:37.444Z,0
2016-12-25T02:40:37.462Z,0
2016-12-25T02:41:37.786Z,0
2016-12-25T02:42:37.499Z,0
2016-12-25T02:43:37.515Z,0
2016-12-25T02:44:37.535Z,0
2016-12-25T02:47:37.590Z,0
2016-12-25T02:48:37.608Z,0
2016-12-25T02:49:37.628Z,0
2016-12-25T02:50:37.640Z,0
2016-12-25T02:51:52.577Z,0
2016-12-25T02:52:37.673Z,0
2016-12-25T02:53:37.692Z,0
2016-12-25T02:54:37.708Z,0
2016-12-25T02:55:52.648Z,0
2016-12-25T02:56:52.664Z,0
2016-12-25T02:57:37.766Z,0
2016-12-25T02:58:52.698Z,0
2016-12-25T02:59:37.797Z,0
2016-12-25T03:00:37.840Z,0
2016-12-25T03:01:37.838Z,0
2016-12-25T03:02:37.855Z,0
2016-12-25T03:03:52.786Z,0
2016-12-25T03:04:37.887Z,0
2016-12-25T03:05:37.903Z,0
2016-12-25T03:07:52.862Z,0
2016-12-25T03:08:37.958Z,0
2016-12-25T03:09:37.972Z,0
2016-12-25T03:10:37.996Z,0
2016-12-25T03:11:38.010Z,0
2016-12-25T03:12:52.948Z,0
2016-12-25T03:13:38.045Z,0
2016-12-25T03:14:38.066Z,0
2016-12-25T03:15:38.387Z,0
2016-12-25T03:16:38.103Z,0
2016-12-25T03:17:38.115Z,0
2016-12-25T03:18:38.138Z,0
2016-12-25T03:20:38.173Z,0
2016-12-25T03:21:38.188Z,0
2016-12-25T03:22:53.127Z,0
2016-12-25T03:23:38.224Z,0
2016-12-25T03:24:38.248Z,0
2016-12-25T03:25:38.288Z,0
2016-12-25T03:26:38.278Z,0
2016-12-25T03:27:38.300Z,0
2016-12-25T03:28:53.234Z,0
2016-12-25T03:29:38.331Z,0
2016-12-25T03:30:38.372Z,0
2016-12-25T03:31:38.366Z,0
2016-12-25T03:32:38.411Z,0
2016-12-25T03:33:38.401Z,0
2016-12-25T03:34:38.423Z,0
2016-12-25T03:35:53.356Z,0
2016-12-25T03:36:38.463Z,0
2016-12-25T03:37:38.473Z,0
2016-12-25T03:38:38.492Z,0
2016-12-25T03:39:38.511Z,0
2016-12-25T03:40:38.529Z,0
2016-12-25T03:41:53.467Z,0
2016-12-25T03:42:38.564Z,0
2016-12-25T03:43:38.581Z,0
2016-12-25T03:44:38.600Z,0
2016-12-25T03:45:38.619Z,0
2016-12-25T03:46:53.553Z,0
2016-12-25T03:47:38.658Z,0
2016-12-25T03:48:38.667Z,0
2016-12-25T03:49:38.689Z,0
2016-12-25T03:50:38.712Z,0
2016-12-25T03:51:38.721Z,0
2016-12-25T03:52:38.740Z,0
2016-12-25T03:53:38.758Z,0
2016-12-25T03:54:53.696Z,0
2016-12-25T03:55:39.097Z,0
2016-12-25T03:56:38.817Z,0
2016-12-25T03:57:38.831Z,0
2016-12-25T03:58:38.847Z,0
2016-12-25T03:59:38.884Z,0
2016-12-25T04:00:53.803Z,0
2016-12-25T04:01:38.904Z,0
2016-12-25T04:02:53.838Z,0
2016-12-25T04:03:38.937Z,0
2016-12-25T04:04:38.956Z,0
2016-12-25T04:05:53.892Z,0
2016-12-25T04:06:38.994Z,0
2016-12-25T04:07:39.011Z,0
2016-12-25T04:08:39.028Z,0
2016-12-25T04:09:39.045Z,0
2016-12-25T04:10:53.981Z,0
2016-12-25T04:11:39.083Z,0
2016-12-25T04:12:39.096Z,0
2016-12-25T04:13:39.117Z,0
2016-12-25T04:14:39.134Z,0
2016-12-25T04:15:39.150Z,0
2016-12-25T04:17:39.187Z,0
2016-12-25T04:18:39.206Z,0
2016-12-25T04:19:39.227Z,0
2016-12-25T04:20:39.236Z,0
2016-12-25T04:21:39.263Z,0
2016-12-25T04:22:54.194Z,0
2016-12-25T04:23:39.294Z,0
2016-12-25T04:24:39.311Z,0
2016-12-25T04:25:39.359Z,0
2016-12-25T04:26:54.265Z,0
2016-12-25T04:27:39.362Z,0
2016-12-25T04:28:39.385Z,0
2016-12-25T04:29:39.399Z,0
2016-12-25T04:30:54.371Z,0
2016-12-25T04:31:39.436Z,0
2016-12-25T04:32:39.464Z,0
2016-12-25T04:33:39.469Z,0
2016-12-25T04:34:39.490Z,0
2016-12-25T04:35:54.456Z,0
2016-12-25T04:36:39.829Z,0
2016-12-25T04:37:54.461Z,0
2016-12-25T04:39:39.614Z,0
2016-12-25T04:40:39.630Z,0
2016-12-25T04:41:39.613Z,0
2016-12-25T04:42:54.549Z,0
2016-12-25T04:43:39.649Z,0
2016-12-25T04:44:39.671Z,0
2016-12-25T04:45:39.686Z,0
2016-12-25T04:46:39.700Z,0
2016-12-25T04:47:39.724Z,0
2016-12-25T04:48:39.767Z,0
2016-12-25T04:49:39.755Z,0
2016-12-25T04:50:39.775Z,0
2016-12-25T04:51:39.792Z,0
2016-12-25T04:52:39.809Z,0
2016-12-25T04:53:40.137Z,0
2016-12-25T04:54:39.852Z,0
2016-12-25T04:55:39.863Z,0
2016-12-25T04:56:39.884Z,0
2016-12-25T04:57:54.820Z,0
2016-12-25T04:58:39.917Z,0
2016-12-25T04:59:39.934Z,0
2016-12-25T05:00:39.951Z,0
2016-12-25T05:01:54.891Z,0
2016-12-25T05:02:39.988Z,0
2016-12-25T05:03:40.005Z,0
2016-12-25T05:04:40.029Z,0
2016-12-25T05:05:40.052Z,0
2016-12-25T05:06:40.061Z,0
2016-12-25T05:07:40.078Z,0
2016-12-25T05:08:40.102Z,0
2016-12-25T05:09:40.118Z,0
2016-12-25T05:10:55.049Z,0
2016-12-25T05:11:40.151Z,0
2016-12-25T05:12:40.168Z,0
2016-12-25T05:13:40.189Z,0
2016-12-25T05:14:40.205Z,0
2016-12-25T05:15:40.224Z,0
2016-12-25T05:16:40.241Z,0
2016-12-25T05:17:40.259Z,0
2016-12-25T05:18:40.279Z,0
2016-12-25T05:19:40.294Z,0
2016-12-25T05:20:40.315Z,0
2016-12-25T05:21:40.336Z,0
2016-12-25T05:22:40.373Z,0
2016-12-25T05:23:55.285Z,0
2016-12-25T05:25:40.417Z,0
2016-12-25T05:27:40.468Z,0
2016-12-25T05:28:40.457Z,0
2016-12-25T05:29:55.393Z,0
2016-12-25T05:30:40.494Z,0
2016-12-25T05:31:40.610Z,0
2016-12-25T05:32:40.527Z,0
2016-12-25T05:33:40.544Z,0
2016-12-25T05:35:40.582Z,0
2016-12-25T05:36:40.602Z,0
2016-12-25T05:37:40.627Z,0
2016-12-25T05:39:40.653Z,0
2016-12-25T05:41:40.692Z,0
2016-12-25T05:43:40.728Z,0
2016-12-25T05:44:40.750Z,0
2016-12-25T05:45:55.680Z,0
2016-12-25T05:46:40.781Z,0
2016-12-25T05:47:40.800Z,0
2016-12-25T05:48:40.815Z,0
2016-12-25T05:49:40.866Z,0
2016-12-25T05:50:40.855Z,0
2016-12-25T05:51:40.868Z,0
2016-12-25T05:52:40.888Z,0
2016-12-25T05:53:40.941Z,0
2016-12-25T05:54:55.842Z,0
2016-12-25T05:55:40.942Z,0
2016-12-25T05:56:55.886Z,0
2016-12-25T05:57:55.899Z,0
2016-12-25T05:58:40.998Z,0
2016-12-25T05:59:41.019Z,0
2016-12-25T06:00:41.033Z,0
2016-12-25T06:01:55.968Z,0
2016-12-25T06:02:41.067Z,0
2016-12-25T06:03:41.089Z,0
2016-12-25T06:04:41.414Z,0
2016-12-25T06:05:41.125Z,0
2016-12-25T06:06:41.142Z,0
2016-12-25T06:07:56.079Z,0
2016-12-25T06:08:41.178Z,0
2016-12-25T06:09:41.204Z,0
2016-12-25T06:10:41.223Z,0
2016-12-25T06:11:41.230Z,0
2016-12-25T06:12:41.247Z,0
2016-12-25T06:13:41.270Z,0
2016-12-25T06:14:41.286Z,0
2016-12-25T06:15:41.333Z,0
2016-12-25T06:16:41.324Z,0
2016-12-25T06:17:56.258Z,0
2016-12-25T06:18:41.667Z,0
2016-12-25T06:19:41.380Z,0
2016-12-25T06:20:41.395Z,0
2016-12-25T06:21:41.415Z,0
2016-12-25T06:22:41.432Z,0
2016-12-25T06:23:41.452Z,0
2016-12-25T06:24:41.469Z,0
2016-12-25T06:25:41.488Z,0
2016-12-25T06:26:41.507Z,0
2016-12-25T06:27:41.520Z,0
2016-12-25T06:29:56.477Z,0
2016-12-25T06:30:41.584Z,0
2016-12-25T06:31:41.592Z,0
2016-12-25T06:32:56.531Z,0
2016-12-25T06:33:41.632Z,0
2016-12-25T06:34:41.650Z,0
2016-12-25T06:35:41.668Z,0
2016-12-25T06:36:41.688Z,0
2016-12-25T06:38:41.721Z,0
2016-12-25T06:39:41.766Z,0
2016-12-25T06:40:56.676Z,0
2016-12-25T06:41:56.693Z,0
2016-12-25T06:42:41.794Z,0
2016-12-25T06:43:41.812Z,0
2016-12-25T06:45:41.851Z,0
2016-12-25T06:46:41.866Z,0
2016-12-25T06:47:41.894Z,0
2016-12-25T06:48:41.905Z,0
2016-12-25T06:49:41.921Z,0
2016-12-25T06:50:41.941Z,0
2016-12-25T06:51:41.958Z,4
2016-12-25T06:52:41.974Z,4
2016-12-25T06:53:41.995Z,4
2016-12-25T06:54:42.016Z,4
2016-12-25T06:55:56.950Z,0
2016-12-25T06:56:42.050Z,4
2016-12-25T06:58:42.089Z,4
2016-12-25T06:59:57.024Z,4
2016-12-25T07:00:42.125Z,4
2016-12-25T07:01:42.145Z,4
2016-12-25T07:02:42.195Z,8
2016-12-25T07:03:42.179Z,4
2016-12-25T07:04:57.113Z,8
2016-12-25T07:05:42.214Z,12
2016-12-25T07:06:42.234Z,8
2016-12-25T07:07:42.252Z,12
2016-12-25T07:08:42.267Z,8
2016-12-25T07:09:42.288Z,12
2016-12-25T07:10:42.308Z,12
2016-12-25T07:11:42.327Z,16
2016-12-25T07:12:42.343Z,16
2016-12-25T07:13:42.358Z,20
2016-12-25T07:14:42.379Z,20
2016-12-25T07:15:42.396Z,20
2016-12-25T07:16:42.416Z,24
2016-12-25T07:17:42.484Z,28
2016-12-25T07:18:42.452Z,28
2016-12-25T07:19:42.471Z,28
2016-12-25T07:20:57.404Z,32
2016-12-25T07:21:42.817Z,28
2016-12-25T07:22:57.449Z,36
2016-12-25T07:23:42.548Z,40
2016-12-25T07:24:42.559Z,52
2016-12-25T07:25:42.582Z,48
2016-12-25T07:26:42.598Z,48
2016-12-25T07:27:42.621Z,40
2016-12-25T07:28:42.635Z,40
2016-12-25T07:29:42.656Z,44
2016-12-25T07:30:42.980Z,44
2016-12-25T07:31:57.618Z,56
2016-12-25T07:32:42.712Z,56
2016-12-25T07:33:42.729Z,64
2016-12-25T07:34:42.744Z,68
2016-12-25T07:35:42.766Z,72
2016-12-25T07:36:57.700Z,64
2016-12-25T07:37:42.802Z,60
2016-12-25T07:38:42.854Z,56
2016-12-25T07:39:42.839Z,56
2016-12-25T07:40:42.854Z,60
2016-12-25T07:41:42.875Z,56
2016-12-25T07:42:43.195Z,64
2016-12-25T07:43:42.918Z,76
2016-12-25T07:44:57.847Z,72
2016-12-25T07:45:42.949Z,80
2016-12-25T07:46:57.886Z,92
2016-12-25T07:47:57.906Z,96
2016-12-25T07:48:57.924Z,96
2016-12-25T07:50:43.042Z,104
2016-12-25T07:51:43.059Z,116
2016-12-25T07:52:57.996Z,128
2016-12-25T07:53:43.098Z,124
2016-12-25T07:54:43.114Z,148
2016-12-25T07:55:58.056Z,132
2016-12-25T07:56:43.152Z,140
2016-12-25T07:57:58.091Z,168
2016-12-25T07:58:43.191Z,188
2016-12-25T07:59:58.127Z,176
2016-12-25T08:00:43.227Z,188
2016-12-25T08:01:43.245Z,184
2016-12-25T08:02:43.265Z,208
2016-12-25T08:03:43.285Z,240
2016-12-25T08:04:43.302Z,288
2016-12-25T08:05:43.327Z,272
2016-12-25T08:06:43.344Z,248
2016-12-25T08:07:58.277Z,212
2016-12-25T08:08:43.377Z,208
2016-12-25T08:09:43.394Z,196
2016-12-25T08:10:43.415Z,188
2016-12-25T08:11:43.432Z,216
2016-12-25T08:12:43.452Z,216
2016-12-25T08:13:43.469Z,212
2016-12-25T08:14:43.486Z,228
2016-12-25T08:15:43.509Z,224
2016-12-25T08:16:43.523Z,228
2016-12-25T08:17:58.462Z,264
2016-12-25T08:18:58.480Z,280
2016-12-25T08:19:43.610Z,296
2016-12-25T08:20:43.597Z,328
2016-12-25T08:21:43.618Z,396
2016-12-25T08:22:43.635Z,464
2016-12-25T08:23:43.656Z,544
2016-12-25T08:24:43.677Z,556
2016-12-25T08:25:43.691Z,588
2016-12-25T08:26:58.633Z,492
2016-12-25T08:27:43.732Z,432
2016-12-25T08:28:43.777Z,400
2016-12-25T08:29:43.767Z,412
2016-12-25T08:30:43.788Z,380
2016-12-25T08:31:43.804Z,352
2016-12-25T08:32:43.847Z,372
2016-12-25T08:34:43.863Z,528
2016-12-25T08:35:58.798Z,788
2016-12-25T08:36:43.896Z,848
2016-12-25T08:37:58.844Z,952
2016-12-25T08:38:43.935Z,996
2016-12-25T08:39:58.873Z,1100
2016-12-25T08:40:43.973Z,1132
2016-12-25T08:41:43.998Z,1100
2016-12-25T08:42:44.012Z,988
2016-12-25T08:43:44.028Z,992
2016-12-25T08:44:58.971Z,1028
2016-12-25T08:45:58.987Z,976
2016-12-25T08:46:44.091Z,916
2016-12-25T08:47:59.024Z,960
2016-12-25T08:48:44.124Z,796
2016-12-25T08:49:44.145Z,988
2016-12-25T08:50:44.188Z,952
2016-12-25T08:51:44.183Z,828
2016-12-25T08:52:44.209Z,832
2016-12-25T08:54:44.240Z,804
2016-12-25T08:55:59.176Z,736
2016-12-25T08:56:44.280Z,804
2016-12-25T08:57:44.311Z,900
2016-12-25T08:58:44.315Z,812
2016-12-25T08:59:44.341Z,932
2016-12-25T09:00:44.352Z,796
2016-12-25T09:01:59.293Z,916
2016-12-25T09:02:44.396Z,920
2016-12-25T09:03:44.412Z,892
2016-12-25T09:04:44.433Z,900
2016-12-25T09:05:44.449Z,780
2016-12-25T09:06:44.473Z,620
2016-12-25T09:07:44.490Z,760
2016-12-25T09:08:44.511Z,784
2016-12-25T09:10:44.548Z,660
2016-12-25T09:11:59.482Z,680
2016-12-25T09:12:44.586Z,764
2016-12-25T09:13:59.527Z,548
2016-12-25T09:14:44.622Z,516
2016-12-25T09:15:44.743Z,504
2016-12-25T09:16:44.660Z,436
2016-12-25T09:17:59.600Z,644
2016-12-25T09:18:44.700Z,828
2016-12-25T09:19:44.724Z,864
2016-12-25T09:20:44.887Z,1036
2016-12-25T09:21:44.756Z,1016
2016-12-25T09:22:59.696Z,1084
2016-12-25T09:23:44.804Z,980
2016-12-25T09:24:44.816Z,1136
2016-12-25T09:25:44.836Z,1244
2016-12-25T09:26:44.854Z,1008
2016-12-25T09:27:59.791Z,916
2016-12-25T09:28:44.892Z,884
2016-12-25T09:29:44.913Z,840
2016-12-25T09:30:59.855Z,1000
2016-12-25T09:31:44.955Z,1072
2016-12-25T09:32:44.971Z,1024
2016-12-25T09:33:44.989Z,1168
2016-12-25T09:34:59.929Z,1136
2016-12-25T09:35:59.948Z,1172
2016-12-25T09:36:45.053Z,1228
2016-12-25T09:37:45.070Z,1124
2016-12-25T09:38:45.090Z,1148
2016-12-25T09:39:45.109Z,1164
2016-12-25T09:40:45.132Z,1080
2016-12-25T09:41:45.182Z,1084
2016-12-25T09:43:00.088Z,1000
2016-12-25T09:43:45.186Z,904
2016-12-25T09:44:45.206Z,820
2016-12-25T09:45:45.223Z,808
2016-12-25T09:46:45.244Z,840
2016-12-25T09:47:45.264Z,832
2016-12-25T09:48:45.284Z,900
2016-12-25T09:50:00.223Z,964
2016-12-25T09:50:45.323Z,848
2016-12-25T09:51:45.341Z,852
2016-12-25T09:52:45.374Z,840
2016-12-25T09:54:00.350Z,896
2016-12-25T09:54:45.402Z,960
2016-12-25T09:55:45.446Z,1088
2016-12-25T09:56:45.443Z,852
2016-12-25T09:57:45.461Z,916
2016-12-25T09:58:45.487Z,880
2016-12-25T09:59:45.495Z,996
2016-12-25T10:00:45.516Z,1044
2016-12-25T10:01:45.545Z,920
2016-12-25T10:02:45.554Z,948
2016-12-25T10:03:45.605Z,896
2016-12-25T10:05:00.515Z,936
2016-12-25T10:05:45.615Z,1012
2016-12-25T10:06:45.634Z,1056
2016-12-25T10:07:45.654Z,1000
2016-12-25T10:08:45.699Z,1136
2016-12-25T10:09:45.692Z,1068
2016-12-25T10:10:45.716Z,1240
2016-12-25T10:11:45.733Z,1116
2016-12-25T10:12:45.755Z,1220
2016-12-25T10:13:45.774Z,1320
2016-12-25T10:15:00.708Z,1628
2016-12-25T10:15:45.810Z,1652
2016-12-25T10:17:00.768Z,1752
2016-12-25T10:17:45.846Z,1912
2016-12-25T10:18:45.898Z,1696
2016-12-25T10:19:45.886Z,1704
2016-12-25T10:21:00.826Z,2132
2016-12-25T10:22:00.845Z,2548
2016-12-25T10:22:45.943Z,1892
2016-12-25T10:23:45.966Z,1936
2016-12-25T10:24:45.981Z,1776
2016-12-25T10:25:46.003Z,1344
2016-12-25T10:26:46.024Z,1280
2016-12-25T10:29:46.086Z,1092
2016-12-25T10:31:01.020Z,1144
2016-12-25T10:31:46.119Z,932
2016-12-25T10:32:46.141Z,964
2016-12-25T10:33:46.159Z,972
2016-12-25T10:34:46.186Z,1108
2016-12-25T10:35:46.206Z,1164
2016-12-25T10:36:46.219Z,1028
2016-12-25T10:37:46.240Z,1352
2016-12-25T10:38:46.262Z,1504
2016-12-25T10:39:46.276Z,1296
2016-12-25T10:40:46.300Z,1320
2016-12-25T10:41:46.317Z,1600
2016-12-25T10:42:46.344Z,1468
2016-12-25T10:43:46.357Z,1368
2016-12-25T10:44:46.378Z,1340
2016-12-25T10:46:01.339Z,1436
2016-12-25T10:47:01.335Z,1556
2016-12-25T10:47:46.436Z,1280
2016-12-25T10:48:46.457Z,1320
2016-12-25T10:49:46.478Z,1148
2016-12-25T10:50:46.497Z,1048
2016-12-25T10:51:46.520Z,1204
2016-12-25T10:52:46.532Z,1196
2016-12-25T10:53:46.555Z,1168
2016-12-25T10:55:46.595Z,956
2016-12-25T10:56:46.612Z,912
2016-12-25T10:57:46.633Z,984
2016-12-25T10:59:01.570Z,896
2016-12-25T10:59:46.674Z,900
2016-12-25T11:00:46.694Z,848
2016-12-25T11:01:46.714Z,936
2016-12-25T11:03:01.653Z,1108
2016-12-25T11:03:46.750Z,1028
2016-12-25T11:04:46.803Z,908
2016-12-25T11:05:46.793Z,892
2016-12-25T11:06:46.809Z,980
2016-12-25T11:07:46.832Z,736
2016-12-25T11:08:46.851Z,940
2016-12-25T11:10:01.789Z,772
2016-12-25T11:11:01.808Z,732
2016-12-25T11:11:46.911Z,696
2016-12-25T11:12:46.933Z,708
2016-12-25T11:13:46.953Z,696
2016-12-25T11:14:46.990Z,792
2016-12-25T11:15:46.989Z,960
2016-12-25T11:16:47.013Z,848
2016-12-25T11:18:01.950Z,632
2016-12-25T11:18:47.050Z,568
2016-12-25T11:19:47.070Z,604
2016-12-25T11:20:47.088Z,608
2016-12-25T11:21:47.108Z,652
2016-12-25T11:22:47.133Z,648
2016-12-25T11:23:47.152Z,636
2016-12-25T11:25:02.088Z,740
2016-12-25T11:25:47.188Z,808
2016-12-25T11:26:47.207Z,844
2016-12-25T11:28:02.144Z,744
2016-12-25T11:29:02.167Z,808
2016-12-25T11:30:02.187Z,948
2016-12-25T11:30:47.288Z,1008
2016-12-25T11:31:47.306Z,864
2016-12-25T11:32:47.326Z,904
2016-12-25T11:33:47.347Z,756
2016-12-25T11:34:47.364Z,812
2016-12-25T11:35:47.383Z,776
2016-12-25T11:36:47.407Z,912
2016-12-25T11:37:47.426Z,800
2016-12-25T11:38:47.446Z,708
2016-12-25T11:39:47.471Z,688
2016-12-25T11:40:47.491Z,632
2016-12-25T11:41:47.512Z,600
2016-12-25T11:42:47.527Z,624
2016-12-25T11:44:02.466Z,576
2016-12-25T11:44:47.567Z,540
2016-12-25T11:45:47.591Z,484
2016-12-25T11:46:47.604Z,460
2016-12-25T11:47:47.942Z,488
2016-12-25T11:48:47.643Z,460
2016-12-25T11:50:02.583Z,460
2016-12-25T11:50:47.686Z,468
2016-12-25T11:51:47.703Z,508
2016-12-25T11:53:47.741Z,600
2016-12-25T11:54:47.762Z,712
2016-12-25T11:55:47.787Z,568
2016-12-25T11:56:47.803Z,644
2016-12-25T11:57:47.824Z,540
2016-12-25T11:58:47.842Z,520
2016-12-25T11:59:47.861Z,580
2016-12-25T12:00:47.885Z,620
2016-12-25T12:01:47.906Z,704
2016-12-25T12:02:48.121Z,716
2016-12-25T12:03:47.946Z,692
2016-12-25T12:06:02.901Z,628
2016-12-25T12:06:48.001Z,668
2016-12-25T12:07:48.023Z,548
2016-12-25T12:08:48.038Z,648
2016-12-25T12:09:48.059Z,616
2016-12-25T12:10:48.416Z,620
2016-12-25T12:11:48.097Z,692
2016-12-25T12:12:48.122Z,744
2016-12-25T12:13:48.139Z,724
2016-12-25T12:14:48.160Z,744
2016-12-25T12:15:48.180Z,716
2016-12-25T12:16:48.199Z,592
2016-12-25T12:17:48.220Z,528
2016-12-25T12:18:48.239Z,508
2016-12-25T12:19:48.259Z,572
2016-12-25T12:20:48.284Z,440
2016-12-25T12:22:03.222Z,448
2016-12-25T12:22:48.468Z,536
2016-12-25T12:23:48.342Z,512
2016-12-25T12:24:48.359Z,528
2016-12-25T12:25:48.376Z,516
2016-12-25T12:27:03.318Z,544
2016-12-25T12:27:48.445Z,528
2016-12-25T12:28:48.434Z,500
2016-12-25T12:29:48.459Z,548
2016-12-25T12:30:48.476Z,556
2016-12-25T12:32:03.417Z,588
2016-12-25T12:33:03.436Z,664
2016-12-25T12:33:48.535Z,576
2016-12-25T12:34:48.559Z,596
2016-12-25T12:35:48.577Z,480
2016-12-25T12:36:48.597Z,548
2016-12-25T12:38:03.534Z,516
2016-12-25T12:38:48.637Z,500
2016-12-25T12:39:48.654Z,592
2016-12-25T12:40:48.675Z,544
2016-12-25T12:41:48.708Z,580
2016-12-25T12:42:48.719Z,572
2016-12-25T12:43:48.734Z,500
2016-12-25T12:44:48.755Z,696
2016-12-25T12:46:03.692Z,532
2016-12-25T12:46:48.796Z,532
2016-12-25T12:48:03.734Z,556
2016-12-25T12:49:04.084Z,504
2016-12-25T12:50:03.773Z,640
2016-12-25T12:50:48.878Z,592
2016-12-25T12:51:48.894Z,604
2016-12-25T12:53:03.832Z,608
2016-12-25T12:53:48.938Z,540
2016-12-25T12:54:48.952Z,656
2016-12-25T12:55:48.971Z,552
2016-12-25T12:56:49.002Z,496
2016-12-25T12:57:49.017Z,536
2016-12-25T12:58:49.037Z,460
2016-12-25T12:59:49.054Z,472
2016-12-25T13:00:49.074Z,496
2016-12-25T13:01:49.090Z,612
2016-12-25T13:02:49.114Z,580
2016-12-25T13:04:49.153Z,752
2016-12-25T13:05:49.173Z,640
2016-12-25T13:06:49.194Z,592
2016-12-25T13:07:49.212Z,620
2016-12-25T13:08:49.231Z,464
2016-12-25T13:09:49.248Z,500
2016-12-25T13:10:49.271Z,524
2016-12-25T13:11:49.291Z,480
2016-12-25T13:12:49.308Z,504
2016-12-25T13:13:49.330Z,500
2016-12-25T13:14:49.351Z,552
2016-12-25T13:15:49.371Z,552
2016-12-25T13:16:49.391Z,544
2016-12-25T13:18:04.327Z,496
2016-12-25T13:18:49.430Z,548
2016-12-25T13:19:49.457Z,564
2016-12-25T13:21:04.388Z,620
2016-12-25T13:21:49.495Z,600
2016-12-25T13:23:49.537Z,464
2016-12-25T13:25:04.471Z,552
2016-12-25T13:25:49.876Z,588
2016-12-25T13:26:49.892Z,688
2016-12-25T13:27:49.640Z,652
2016-12-25T13:28:49.631Z,588
2016-12-25T13:30:04.570Z,620
2016-12-25T13:30:49.675Z,584
2016-12-25T13:31:49.692Z,588
2016-12-25T13:32:49.709Z,596
2016-12-25T13:33:50.058Z,548
2016-12-25T13:34:49.752Z,476
2016-12-25T13:37:49.811Z,440
2016-12-25T13:38:49.827Z,460
2016-12-25T13:39:49.854Z,432
2016-12-25T13:41:04.789Z,336
2016-12-25T13:41:49.894Z,288
2016-12-25T13:42:49.909Z,268
2016-12-25T13:43:49.932Z,268
2016-12-25T13:44:49.956Z,276
2016-12-25T13:45:49.969Z,264
2016-12-25T13:46:49.992Z,264
2016-12-25T13:48:04.931Z,248
2016-12-25T13:48:50.033Z,272
2016-12-25T13:49:50.050Z,316
2016-12-25T13:50:50.074Z,352
2016-12-25T13:51:50.148Z,388
2016-12-25T13:53:05.031Z,296
2016-12-25T13:53:50.133Z,248
2016-12-25T13:54:50.155Z,196
2016-12-25T13:55:50.175Z,172
2016-12-25T13:57:05.112Z,172
2016-12-25T13:57:50.209Z,200
2016-12-25T13:58:50.233Z,188
2016-12-25T13:59:50.254Z,172
2016-12-25T14:00:50.270Z,172
2016-12-25T14:01:50.296Z,220
2016-12-25T14:03:05.231Z,256
2016-12-25T14:03:50.334Z,256
2016-12-25T14:04:50.659Z,244
2016-12-25T14:05:50.379Z,256
2016-12-25T14:06:50.394Z,276
2016-12-25T14:07:50.414Z,272
2016-12-25T14:08:50.435Z,256
2016-12-25T14:09:50.453Z,264
2016-12-25T14:10:50.476Z,292
2016-12-25T14:11:50.492Z,272
2016-12-25T14:13:05.432Z,288
2016-12-25T14:13:50.534Z,304
2016-12-25T14:14:50.554Z,300
2016-12-25T14:15:50.581Z,272
2016-12-25T14:16:50.595Z,332
2016-12-25T14:17:50.617Z,324
2016-12-25T14:18:50.636Z,300
2016-12-25T14:19:50.705Z,256
2016-12-25T14:20:50.705Z,260
2016-12-25T14:21:50.696Z,324
2016-12-25T14:24:05.654Z,268
2016-12-25T14:25:05.674Z,292
2016-12-25T14:25:50.783Z,272
2016-12-25T14:26:50.797Z,288
2016-12-25T14:28:05.742Z,248
2016-12-25T14:28:50.840Z,244
2016-12-25T14:29:50.864Z,256
2016-12-25T14:30:50.874Z,252
2016-12-25T14:31:50.902Z,268
2016-12-25T14:32:50.926Z,264
2016-12-25T14:34:05.857Z,264
2016-12-25T14:34:50.959Z,232
2016-12-25T14:35:50.986Z,232
2016-12-25T14:36:50.998Z,180
2016-12-25T14:38:51.041Z,164
2016-12-25T14:40:05.978Z,144
2016-12-25T14:41:06.001Z,120
2016-12-25T14:41:51.154Z,116
2016-12-25T14:42:51.120Z,124
2016-12-25T14:43:51.142Z,112
2016-12-25T14:44:51.159Z,92
2016-12-25T14:45:51.179Z,76
2016-12-25T14:46:51.204Z,64
2016-12-25T14:47:51.221Z,56
2016-12-25T14:48:51.242Z,52
2016-12-25T14:49:51.262Z,64
2016-12-25T14:50:51.286Z,60